sensor_id;sensor_type;location;lat;lon;timestamp;P1;P2;P0
82886;PMS5003;72660;51.258;-2.200;2024-01-16T00:00:09;22;20;
82886;PMS5003;72660;51.258;-2.200;2024-01-16T00:02:34;26;25;
82886;PMS5003;72660;51.258;-2.200;2024-01-16T00:04:59;20;17;
82886;PMS5003;72660;51.258;-2.200;2024-01-16T00:07:25;20;20;
82886;PMS5003;72660;51.258;-2.200;2024-01-16T00:09:51;23;21;
82886;PMS5003;72660;51.258;-2.200;2024-01-16T00:12:16;23;19;
82886;PMS5003;72660;51.258;-2.200;2024-01-16T00:14:41;23;19;
82886;PMS5003;72660;51.258;-2.200;2024-01-16T00:17:06;19;18;
82886;PMS5003;72660;51.258;-2.200;2024-01-16T00:19:32;22;17;
82886;PMS5003;72660;51.258;-2.200;2024-01-16T00:21:57;26;22;
82886;PMS5003;72660;51.258;-2.200;2024-01-16T00:24:23;19;18;
82886;PMS5003;72660;51.258;-2.200;2024-01-16T00:26:48;21;18;
82886;PMS5003;72660;51.258;-2.200;2024-01-16T00:29:13;20;19;
82886;PMS5003;72660;51.258;-2.200;2024-01-16T00:31:39;21;18;
82886;PMS5003;72660;51.258;-2.200;2024-01-16T00:34:04;21;18;
82886;PMS5003;72660;51.258;-2.200;2024-01-16T00:36:30;24;20;
82886;PMS5003;72660;51.258;-2.200;2024-01-16T00:38:55;18;17;
82886;PMS5003;72660;51.258;-2.200;2024-01-16T00:41:21;16;15;
82886;PMS5003;72660;51.258;-2.200;2024-01-16T00:43:46;20;19;
82886;PMS5003;72660;51.258;-2.200;2024-01-16T00:46:12;20;20;
82886;PMS5003;72660;51.258;-2.200;2024-01-16T00:48:37;19;18;
82886;PMS5003;72660;51.258;-2.200;2024-01-16T00:51:02;23;20;
82886;PMS5003;72660;51.258;-2.200;2024-01-16T00:53:27;21;18;
82886;PMS5003;72660;51.258;-2.200;2024-01-16T00:55:53;19;17;
82886;PMS5003;72660;51.258;-2.200;2024-01-16T00:58:18;18;15;
82886;PMS5003;72660;51.258;-2.200;2024-01-16T01:00:43;24;21;
82886;PMS5003;72660;51.258;-2.200;2024-01-16T01:03:08;16;15;
82886;PMS5003;72660;51.258;-2.200;2024-01-16T01:05:33;22;18;
82886;PMS5003;72660;51.258;-2.200;2024-01-16T01:07:59;18;16;
82886;PMS5003;72660;51.258;-2.200;2024-01-16T01:10:24;14;13;
82886;PMS5003;72660;51.258;-2.200;2024-01-16T01:12:50;14;12;
82886;PMS5003;72660;51.258;-2.200;2024-01-16T01:15:15;14;13;
82886;PMS5003;72660;51.258;-2.200;2024-01-16T01:17:40;14;12;
82886;PMS5003;72660;51.258;-2.200;2024-01-16T01:20:06;14;11;
82886;PMS5003;72660;51.258;-2.200;2024-01-16T01:22:31;16;14;
82886;PMS5003;72660;51.258;-2.200;2024-01-16T01:24:56;19;13;
82886;PMS5003;72660;51.258;-2.200;2024-01-16T01:27:22;14;13;
82886;PMS5003;72660;51.258;-2.200;2024-01-16T01:29:47;18;14;
82886;PMS5003;72660;51.258;-2.200;2024-01-16T01:32:13;14;11;
82886;PMS5003;72660;51.258;-2.200;2024-01-16T01:34:41;15;14;
82886;PMS5003;72660;51.258;-2.200;2024-01-16T01:37:04;13;11;
82886;PMS5003;72660;51.258;-2.200;2024-01-16T01:39:30;10;9;
82886;PMS5003;72660;51.258;-2.200;2024-01-16T01:41:55;13;12;
82886;PMS5003;72660;51.258;-2.200;2024-01-16T01:44:21;12;12;
82886;PMS5003;72660;51.258;-2.200;2024-01-16T01:46:46;14;12;
82886;PMS5003;72660;51.258;-2.200;2024-01-16T01:49:12;11;11;
82886;PMS5003;72660;51.258;-2.200;2024-01-16T01:51:37;11;11;
82886;PMS5003;72660;51.258;-2.200;2024-01-16T01:54:02;12;10;
82886;PMS5003;72660;51.258;-2.200;2024-01-16T01:56:27;13;10;
82886;PMS5003;72660;51.258;-2.200;2024-01-16T01:58:54;12;10;
82886;PMS5003;72660;51.258;-2.200;2024-01-16T02:01:18;11;11;
82886;PMS5003;72660;51.258;-2.200;2024-01-16T02:03:45;9;9;
82886;PMS5003;72660;51.258;-2.200;2024-01-16T02:06:10;15;12;
82886;PMS5003;72660;51.258;-2.200;2024-01-16T02:08:35;10;9;
82886;PMS5003;72660;51.258;-2.200;2024-01-16T02:11:01;7;7;
82886;PMS5003;72660;51.258;-2.200;2024-01-16T02:13:27;12;9;
82886;PMS5003;72660;51.258;-2.200;2024-01-16T02:15:52;14;10;
82886;PMS5003;72660;51.258;-2.200;2024-01-16T02:18:17;8;8;
82886;PMS5003;72660;51.258;-2.200;2024-01-16T02:20:42;12;11;
82886;PMS5003;72660;51.258;-2.200;2024-01-16T02:23:08;13;10;
82886;PMS5003;72660;51.258;-2.200;2024-01-16T02:25:34;10;9;
82886;PMS5003;72660;51.258;-2.200;2024-01-16T02:27:59;15;12;
82886;PMS5003;72660;51.258;-2.200;2024-01-16T02:30:25;13;10;
82886;PMS5003;72660;51.258;-2.200;2024-01-16T02:32:50;13;13;
82886;PMS5003;72660;51.258;-2.200;2024-01-16T02:35:16;9;9;
82886;PMS5003;72660;51.258;-2.200;2024-01-16T02:37:41;12;12;
82886;PMS5003;72660;51.258;-2.200;2024-01-16T02:40:06;10;9;
82886;PMS5003;72660;51.258;-2.200;2024-01-16T02:42:32;9;9;
82886;PMS5003;72660;51.258;-2.200;2024-01-16T02:44:57;11;10;
82886;PMS5003;72660;51.258;-2.200;2024-01-16T02:47:23;16;12;
82886;PMS5003;72660;51.258;-2.200;2024-01-16T02:49:48;9;9;
82886;PMS5003;72660;51.258;-2.200;2024-01-16T02:52:14;9;9;
82886;PMS5003;72660;51.258;-2.200;2024-01-16T02:54:39;15;12;
82886;PMS5003;72660;51.258;-2.200;2024-01-16T02:57:05;8;7;
82886;PMS5003;72660;51.258;-2.200;2024-01-16T02:59:30;10;10;
82886;PMS5003;72660;51.258;-2.200;2024-01-16T03:01:56;10;9;
82886;PMS5003;72660;51.258;-2.200;2024-01-16T03:04:21;7;7;
82886;PMS5003;72660;51.258;-2.200;2024-01-16T03:06:46;9;9;
82886;PMS5003;72660;51.258;-2.200;2024-01-16T03:09:12;9;6;
82886;PMS5003;72660;51.258;-2.200;2024-01-16T03:11:37;8;6;
82886;PMS5003;72660;51.258;-2.200;2024-01-16T03:14:04;9;9;
82886;PMS5003;72660;51.258;-2.200;2024-01-16T03:16:29;9;9;
82886;PMS5003;72660;51.258;-2.200;2024-01-16T03:18:55;8;7;
82886;PMS5003;72660;51.258;-2.200;2024-01-16T03:21:20;13;11;
82886;PMS5003;72660;51.258;-2.200;2024-01-16T03:23:46;10;7;
82886;PMS5003;72660;51.258;-2.200;2024-01-16T03:26:12;10;8;
82886;PMS5003;72660;51.258;-2.200;2024-01-16T03:28:37;10;8;
82886;PMS5003;72660;51.258;-2.200;2024-01-16T03:31:03;8;8;
82886;PMS5003;72660;51.258;-2.200;2024-01-16T03:33:28;8;8;
82886;PMS5003;72660;51.258;-2.200;2024-01-16T03:35:54;10;6;
82886;PMS5003;72660;51.258;-2.200;2024-01-16T03:38:19;14;11;
82886;PMS5003;72660;51.258;-2.200;2024-01-16T03:40:45;11;8;
82886;PMS5003;72660;51.258;-2.200;2024-01-16T03:43:11;9;9;
82886;PMS5003;72660;51.258;-2.200;2024-01-16T03:45:36;7;7;
82886;PMS5003;72660;51.258;-2.200;2024-01-16T03:48:02;14;8;
82886;PMS5003;72660;51.258;-2.200;2024-01-16T03:50:28;11;8;
82886;PMS5003;72660;51.258;-2.200;2024-01-16T03:52:53;11;8;
82886;PMS5003;72660;51.258;-2.200;2024-01-16T03:55:19;10;10;
82886;PMS5003;72660;51.258;-2.200;2024-01-16T03:57:44;10;9;
82886;PMS5003;72660;51.258;-2.200;2024-01-16T04:00:11;11;9;
82886;PMS5003;72660;51.258;-2.200;2024-01-16T04:02:37;13;9;
82886;PMS5003;72660;51.258;-2.200;2024-01-16T04:05:01;9;7;
82886;PMS5003;72660;51.258;-2.200;2024-01-16T04:07:27;8;8;
82886;PMS5003;72660;51.258;-2.200;2024-01-16T04:09:52;7;7;
82886;PMS5003;72660;51.258;-2.200;2024-01-16T04:12:18;8;8;
82886;PMS5003;72660;51.258;-2.200;2024-01-16T04:14:44;11;10;
82886;PMS5003;72660;51.258;-2.200;2024-01-16T04:17:09;8;8;
82886;PMS5003;72660;51.258;-2.200;2024-01-16T04:19:34;11;9;
82886;PMS5003;72660;51.258;-2.200;2024-01-16T04:22:00;8;8;
82886;PMS5003;72660;51.258;-2.200;2024-01-16T04:24:26;9;9;
82886;PMS5003;72660;51.258;-2.200;2024-01-16T04:26:51;14;10;
82886;PMS5003;72660;51.258;-2.200;2024-01-16T04:29:17;9;9;
82886;PMS5003;72660;51.258;-2.200;2024-01-16T04:31:42;12;11;
82886;PMS5003;72660;51.258;-2.200;2024-01-16T04:34:08;14;12;
82886;PMS5003;72660;51.258;-2.200;2024-01-16T04:36:33;8;8;
82886;PMS5003;72660;51.258;-2.200;2024-01-16T04:38:59;13;12;
82886;PMS5003;72660;51.258;-2.200;2024-01-16T04:41:24;8;8;
82886;PMS5003;72660;51.258;-2.200;2024-01-16T04:43:50;8;8;
82886;PMS5003;72660;51.258;-2.200;2024-01-16T04:46:16;8;8;
82886;PMS5003;72660;51.258;-2.200;2024-01-16T04:48:41;12;12;
82886;PMS5003;72660;51.258;-2.200;2024-01-16T04:51:06;10;9;
82886;PMS5003;72660;51.258;-2.200;2024-01-16T04:53:32;10;7;
82886;PMS5003;72660;51.258;-2.200;2024-01-16T04:55:58;10;9;
82886;PMS5003;72660;51.258;-2.200;2024-01-16T04:58:23;15;12;
82886;PMS5003;72660;51.258;-2.200;2024-01-16T05:00:48;10;10;
82886;PMS5003;72660;51.258;-2.200;2024-01-16T05:03:14;10;10;
82886;PMS5003;72660;51.258;-2.200;2024-01-16T05:05:39;13;12;
82886;PMS5003;72660;51.258;-2.200;2024-01-16T05:08:05;10;9;
82886;PMS5003;72660;51.258;-2.200;2024-01-16T05:10:30;11;9;
82886;PMS5003;72660;51.258;-2.200;2024-01-16T05:12:56;12;8;
82886;PMS5003;72660;51.258;-2.200;2024-01-16T05:15:22;8;8;
82886;PMS5003;72660;51.258;-2.200;2024-01-16T05:17:47;9;8;
82886;PMS5003;72660;51.258;-2.200;2024-01-16T05:20:13;9;9;
82886;PMS5003;72660;51.258;-2.200;2024-01-16T05:22:38;10;8;
82886;PMS5003;72660;51.258;-2.200;2024-01-16T05:25:04;11;8;
82886;PMS5003;72660;51.258;-2.200;2024-01-16T05:27:29;7;6;
82886;PMS5003;72660;51.258;-2.200;2024-01-16T05:29:55;7;7;
82886;PMS5003;72660;51.258;-2.200;2024-01-16T05:32:21;9;7;
82886;PMS5003;72660;51.258;-2.200;2024-01-16T05:34:46;8;6;
82886;PMS5003;72660;51.258;-2.200;2024-01-16T05:37:12;8;6;
82886;PMS5003;72660;51.258;-2.200;2024-01-16T05:39:37;6;6;
82886;PMS5003;72660;51.258;-2.200;2024-01-16T05:42:03;5;5;
82886;PMS5003;72660;51.258;-2.200;2024-01-16T05:44:28;5;5;
82886;PMS5003;72660;51.258;-2.200;2024-01-16T05:46:54;6;6;
82886;PMS5003;72660;51.258;-2.200;2024-01-16T05:49:20;9;6;
82886;PMS5003;72660;51.258;-2.200;2024-01-16T05:51:45;5;5;
82886;PMS5003;72660;51.258;-2.200;2024-01-16T05:54:11;9;6;
82886;PMS5003;72660;51.258;-2.200;2024-01-16T05:56:36;8;8;
82886;PMS5003;72660;51.258;-2.200;2024-01-16T05:59:02;7;7;
82886;PMS5003;72660;51.258;-2.200;2024-01-16T06:01:28;12;7;
82886;PMS5003;72660;51.258;-2.200;2024-01-16T06:03:53;14;13;
82886;PMS5003;72660;51.258;-2.200;2024-01-16T06:06:18;8;8;
82886;PMS5003;72660;51.258;-2.200;2024-01-16T06:08:43;12;9;
82886;PMS5003;72660;51.258;-2.200;2024-01-16T06:11:09;13;11;
82886;PMS5003;72660;51.258;-2.200;2024-01-16T06:13:34;12;12;
82886;PMS5003;72660;51.258;-2.200;2024-01-16T06:16:00;12;12;
82886;PMS5003;72660;51.258;-2.200;2024-01-16T06:18:25;10;8;
82886;PMS5003;72660;51.258;-2.200;2024-01-16T06:20:51;8;8;
82886;PMS5003;72660;51.258;-2.200;2024-01-16T06:23:16;7;7;
82886;PMS5003;72660;51.258;-2.200;2024-01-16T06:25:42;8;6;
82886;PMS5003;72660;51.258;-2.200;2024-01-16T06:28:07;6;6;
82886;PMS5003;72660;51.258;-2.200;2024-01-16T06:30:33;7;6;
82886;PMS5003;72660;51.258;-2.200;2024-01-16T06:32:59;8;7;
82886;PMS5003;72660;51.258;-2.200;2024-01-16T06:35:24;7;7;
82886;PMS5003;72660;51.258;-2.200;2024-01-16T06:37:50;6;6;
82886;PMS5003;72660;51.258;-2.200;2024-01-16T06:40:15;8;8;
82886;PMS5003;72660;51.258;-2.200;2024-01-16T06:42:41;6;6;
82886;PMS5003;72660;51.258;-2.200;2024-01-16T06:45:07;6;6;
82886;PMS5003;72660;51.258;-2.200;2024-01-16T06:47:32;9;7;
82886;PMS5003;72660;51.258;-2.200;2024-01-16T06:49:58;8;7;
82886;PMS5003;72660;51.258;-2.200;2024-01-16T06:52:23;8;8;
82886;PMS5003;72660;51.258;-2.200;2024-01-16T06:54:49;10;10;
82886;PMS5003;72660;51.258;-2.200;2024-01-16T06:57:14;8;8;
82886;PMS5003;72660;51.258;-2.200;2024-01-16T06:59:40;9;9;
82886;PMS5003;72660;51.258;-2.200;2024-01-16T07:02:06;8;8;
82886;PMS5003;72660;51.258;-2.200;2024-01-16T07:04:31;10;10;
82886;PMS5003;72660;51.258;-2.200;2024-01-16T07:06:56;8;8;
82886;PMS5003;72660;51.258;-2.200;2024-01-16T07:09:22;8;8;
82886;PMS5003;72660;51.258;-2.200;2024-01-16T07:11:48;10;8;
82886;PMS5003;72660;51.258;-2.200;2024-01-16T07:14:13;7;7;
82886;PMS5003;72660;51.258;-2.200;2024-01-16T07:16:39;8;8;
82886;PMS5003;72660;51.258;-2.200;2024-01-16T07:19:04;9;8;
82886;PMS5003;72660;51.258;-2.200;2024-01-16T07:21:30;9;9;
82886;PMS5003;72660;51.258;-2.200;2024-01-16T07:23:55;10;10;
82886;PMS5003;72660;51.258;-2.200;2024-01-16T07:26:21;13;13;
82886;PMS5003;72660;51.258;-2.200;2024-01-16T07:28:46;14;10;
82886;PMS5003;72660;51.258;-2.200;2024-01-16T07:31:11;9;8;
82886;PMS5003;72660;51.258;-2.200;2024-01-16T07:33:37;13;8;
82886;PMS5003;72660;51.258;-2.200;2024-01-16T07:36:03;8;6;
82886;PMS5003;72660;51.258;-2.200;2024-01-16T07:38:28;13;13;
82886;PMS5003;72660;51.258;-2.200;2024-01-16T07:40:53;8;8;
82886;PMS5003;72660;51.258;-2.200;2024-01-16T07:43:19;7;7;
82886;PMS5003;72660;51.258;-2.200;2024-01-16T07:45:44;6;6;
82886;PMS5003;72660;51.258;-2.200;2024-01-16T07:48:10;10;9;
82886;PMS5003;72660;51.258;-2.200;2024-01-16T07:50:35;12;9;
82886;PMS5003;72660;51.258;-2.200;2024-01-16T07:53:01;6;6;
82886;PMS5003;72660;51.258;-2.200;2024-01-16T07:55:26;8;7;
82886;PMS5003;72660;51.258;-2.200;2024-01-16T07:57:53;11;10;
82886;PMS5003;72660;51.258;-2.200;2024-01-16T08:00:17;12;10;
82886;PMS5003;72660;51.258;-2.200;2024-01-16T08:02:43;10;8;
82886;PMS5003;72660;51.258;-2.200;2024-01-16T08:05:08;9;9;
82886;PMS5003;72660;51.258;-2.200;2024-01-16T08:07:33;8;8;
82886;PMS5003;72660;51.258;-2.200;2024-01-16T08:09:59;9;9;
82886;PMS5003;72660;51.258;-2.200;2024-01-16T08:12:24;7;7;
82886;PMS5003;72660;51.258;-2.200;2024-01-16T08:14:50;9;9;
82886;PMS5003;72660;51.258;-2.200;2024-01-16T08:17:15;9;9;
82886;PMS5003;72660;51.258;-2.200;2024-01-16T08:19:41;9;8;
82886;PMS5003;72660;51.258;-2.200;2024-01-16T08:22:06;13;10;
82886;PMS5003;72660;51.258;-2.200;2024-01-16T08:24:32;10;9;
82886;PMS5003;72660;51.258;-2.200;2024-01-16T08:26:57;11;8;
82886;PMS5003;72660;51.258;-2.200;2024-01-16T08:29:23;11;9;
82886;PMS5003;72660;51.258;-2.200;2024-01-16T08:31:48;12;11;
82886;PMS5003;72660;51.258;-2.200;2024-01-16T08:34:14;9;9;
82886;PMS5003;72660;51.258;-2.200;2024-01-16T08:36:39;11;8;
82886;PMS5003;72660;51.258;-2.200;2024-01-16T08:39:04;11;9;
82886;PMS5003;72660;51.258;-2.200;2024-01-16T08:41:30;9;9;
82886;PMS5003;72660;51.258;-2.200;2024-01-16T08:43:55;8;8;
82886;PMS5003;72660;51.258;-2.200;2024-01-16T08:46:21;7;5;
82886;PMS5003;72660;51.258;-2.200;2024-01-16T08:48:47;10;10;
82886;PMS5003;72660;51.258;-2.200;2024-01-16T08:51:12;14;10;
82886;PMS5003;72660;51.258;-2.200;2024-01-16T08:53:37;12;11;
82886;PMS5003;72660;51.258;-2.200;2024-01-16T08:56:03;12;10;
82886;PMS5003;72660;51.258;-2.200;2024-01-16T08:58:28;12;12;
82886;PMS5003;72660;51.258;-2.200;2024-01-16T09:00:54;17;16;
82886;PMS5003;72660;51.258;-2.200;2024-01-16T09:03:19;14;14;
82886;PMS5003;72660;51.258;-2.200;2024-01-16T09:05:45;15;15;
82886;PMS5003;72660;51.258;-2.200;2024-01-16T09:08:10;16;12;
82886;PMS5003;72660;51.258;-2.200;2024-01-16T09:10:35;10;7;
82886;PMS5003;72660;51.258;-2.200;2024-01-16T09:13:01;12;12;
82886;PMS5003;72660;51.258;-2.200;2024-01-16T09:15:27;10;10;
82886;PMS5003;72660;51.258;-2.200;2024-01-16T09:17:52;12;9;
82886;PMS5003;72660;51.258;-2.200;2024-01-16T09:20:17;9;9;
82886;PMS5003;72660;51.258;-2.200;2024-01-16T09:22:43;10;10;
82886;PMS5003;72660;51.258;-2.200;2024-01-16T09:25:09;8;8;
82886;PMS5003;72660;51.258;-2.200;2024-01-16T09:27:34;9;7;
82886;PMS5003;72660;51.258;-2.200;2024-01-16T09:30:00;11;10;
82886;PMS5003;72660;51.258;-2.200;2024-01-16T09:32:25;11;9;
82886;PMS5003;72660;51.258;-2.200;2024-01-16T09:34:51;9;8;
82886;PMS5003;72660;51.258;-2.200;2024-01-16T09:37:16;11;8;
82886;PMS5003;72660;51.258;-2.200;2024-01-16T09:39:41;9;7;
82886;PMS5003;72660;51.258;-2.200;2024-01-16T09:42:07;8;8;
82886;PMS5003;72660;51.258;-2.200;2024-01-16T09:44:32;11;9;
82886;PMS5003;72660;51.258;-2.200;2024-01-16T09:46:58;15;14;
82886;PMS5003;72660;51.258;-2.200;2024-01-16T09:49:23;12;12;
82886;PMS5003;72660;51.258;-2.200;2024-01-16T09:51:54;14;12;
82886;PMS5003;72660;51.258;-2.200;2024-01-16T09:54:14;8;8;
82886;PMS5003;72660;51.258;-2.200;2024-01-16T09:56:41;11;11;
82886;PMS5003;72660;51.258;-2.200;2024-01-16T09:59:06;7;7;
82886;PMS5003;72660;51.258;-2.200;2024-01-16T10:01:31;8;8;
82886;PMS5003;72660;51.258;-2.200;2024-01-16T10:03:56;8;8;
82886;PMS5003;72660;51.258;-2.200;2024-01-16T10:06:22;12;12;
82886;PMS5003;72660;51.258;-2.200;2024-01-16T10:08:47;15;11;
82886;PMS5003;72660;51.258;-2.200;2024-01-16T10:11:13;10;8;
82886;PMS5003;72660;51.258;-2.200;2024-01-16T10:13:38;10;8;
82886;PMS5003;72660;51.258;-2.200;2024-01-16T10:16:04;12;11;
82886;PMS5003;72660;51.258;-2.200;2024-01-16T10:18:30;7;7;
82886;PMS5003;72660;51.258;-2.200;2024-01-16T10:20:55;10;9;
82886;PMS5003;72660;51.258;-2.200;2024-01-16T10:23:24;9;8;
82886;PMS5003;72660;51.258;-2.200;2024-01-16T10:25:46;10;7;
82886;PMS5003;72660;51.258;-2.200;2024-01-16T10:28:11;13;10;
82886;PMS5003;72660;51.258;-2.200;2024-01-16T10:30:36;11;10;
82886;PMS5003;72660;51.258;-2.200;2024-01-16T10:35:27;9;8;
82886;PMS5003;72660;51.258;-2.200;2024-01-16T10:37:53;9;8;
82886;PMS5003;72660;51.258;-2.200;2024-01-16T10:40:19;7;6;
82886;PMS5003;72660;51.258;-2.200;2024-01-16T10:45:11;5;3;
82886;PMS5003;72660;51.258;-2.200;2024-01-16T10:47:34;2;2;
82886;PMS5003;72660;51.258;-2.200;2024-01-16T10:50:00;2;2;
82886;PMS5003;72660;51.258;-2.200;2024-01-16T10:52:27;7;4;
82886;PMS5003;72660;51.258;-2.200;2024-01-16T10:54:51;4;4;
82886;PMS5003;72660;51.258;-2.200;2024-01-16T10:57:16;5;5;
82886;PMS5003;72660;51.258;-2.200;2024-01-16T10:59:45;1;1;
82886;PMS5003;72660;51.258;-2.200;2024-01-16T11:02:08;2;2;
82886;PMS5003;72660;51.258;-2.200;2024-01-16T11:04:33;3;3;
82886;PMS5003;72660;51.258;-2.200;2024-01-16T11:06:58;5;4;
82886;PMS5003;72660;51.258;-2.200;2024-01-16T11:09:24;3;2;
82886;PMS5003;72660;51.258;-2.200;2024-01-16T11:11:50;4;2;
82886;PMS5003;72660;51.258;-2.200;2024-01-16T11:14:15;2;2;
82886;PMS5003;72660;51.258;-2.200;2024-01-16T11:16:41;2;2;
82886;PMS5003;72660;51.258;-2.200;2024-01-16T11:19:07;2;2;
82886;PMS5003;72660;51.258;-2.200;2024-01-16T11:21:31;3;3;
82886;PMS5003;72660;51.258;-2.200;2024-01-16T11:23:57;3;2;
82886;PMS5003;72660;51.258;-2.200;2024-01-16T11:26:26;2;2;
82886;PMS5003;72660;51.258;-2.200;2024-01-16T11:28:48;1;1;
82886;PMS5003;72660;51.258;-2.200;2024-01-16T11:33:42;1;1;
82886;PMS5003;72660;51.258;-2.200;2024-01-16T11:36:04;1;1;
82886;PMS5003;72660;51.258;-2.200;2024-01-16T11:38:30;1;1;
82886;PMS5003;72660;51.258;-2.200;2024-01-16T11:40:55;1;1;
82886;PMS5003;72660;51.258;-2.200;2024-01-16T11:45:47;0;0;
82886;PMS5003;72660;51.258;-2.200;2024-01-16T11:48:12;2;1;
82886;PMS5003;72660;51.258;-2.200;2024-01-16T11:50:37;0;0;
82886;PMS5003;72660;51.258;-2.200;2024-01-16T11:53:03;2;2;
82886;PMS5003;72660;51.258;-2.200;2024-01-16T11:55:28;0;0;
82886;PMS5003;72660;51.258;-2.200;2024-01-16T11:57:59;1;0;
82886;PMS5003;72660;51.258;-2.200;2024-01-16T12:00:19;0;0;
82886;PMS5003;72660;51.258;-2.200;2024-01-16T12:02:49;1;1;
82886;PMS5003;72660;51.258;-2.200;2024-01-16T12:05:10;1;1;
82886;PMS5003;72660;51.258;-2.200;2024-01-16T12:10:00;2;2;
82886;PMS5003;72660;51.258;-2.200;2024-01-16T12:12:26;2;1;
82886;PMS5003;72660;51.258;-2.200;2024-01-16T12:14:51;2;2;
82886;PMS5003;72660;51.258;-2.200;2024-01-16T12:17:17;0;0;
82886;PMS5003;72660;51.258;-2.200;2024-01-16T12:19:42;1;1;
82886;PMS5003;72660;51.258;-2.200;2024-01-16T12:22:08;2;2;
82886;PMS5003;72660;51.258;-2.200;2024-01-16T12:24:33;1;0;
82886;PMS5003;72660;51.258;-2.200;2024-01-16T12:26:59;1;1;
82886;PMS5003;72660;51.258;-2.200;2024-01-16T12:29:24;1;1;
82886;PMS5003;72660;51.258;-2.200;2024-01-16T12:31:50;1;1;
82886;PMS5003;72660;51.258;-2.200;2024-01-16T12:34:15;0;0;
82886;PMS5003;72660;51.258;-2.200;2024-01-16T12:36:40;1;1;
82886;PMS5003;72660;51.258;-2.200;2024-01-16T12:39:05;0;0;
82886;PMS5003;72660;51.258;-2.200;2024-01-16T12:41:32;1;1;
82886;PMS5003;72660;51.258;-2.200;2024-01-16T12:43:56;0;0;
82886;PMS5003;72660;51.258;-2.200;2024-01-16T12:46:22;2;2;
82886;PMS5003;72660;51.258;-2.200;2024-01-16T12:48:47;1;1;
82886;PMS5003;72660;51.258;-2.200;2024-01-16T12:51:16;3;1;
82886;PMS5003;72660;51.258;-2.200;2024-01-16T12:53:38;2;2;
82886;PMS5003;72660;51.258;-2.200;2024-01-16T12:56:03;2;2;
82886;PMS5003;72660;51.258;-2.200;2024-01-16T12:58:31;1;1;
82886;PMS5003;72660;51.258;-2.200;2024-01-16T13:00:54;2;0;
82886;PMS5003;72660;51.258;-2.200;2024-01-16T13:03:20;2;2;
82886;PMS5003;72660;51.258;-2.200;2024-01-16T13:05:45;2;2;
82886;PMS5003;72660;51.258;-2.200;2024-01-16T13:10:36;1;1;
82886;PMS5003;72660;51.258;-2.200;2024-01-16T13:15:27;3;3;
82886;PMS5003;72660;51.258;-2.200;2024-01-16T13:17:52;3;1;
82886;PMS5003;72660;51.258;-2.200;2024-01-16T13:20:18;2;2;
82886;PMS5003;72660;51.258;-2.200;2024-01-16T13:22:43;2;2;
82886;PMS5003;72660;51.258;-2.200;2024-01-16T13:25:08;3;1;
82886;PMS5003;72660;51.258;-2.200;2024-01-16T13:27:34;0;0;
82886;PMS5003;72660;51.258;-2.200;2024-01-16T13:30:00;4;1;
82886;PMS5003;72660;51.258;-2.200;2024-01-16T13:32:25;1;1;
82886;PMS5003;72660;51.258;-2.200;2024-01-16T13:34:50;1;1;
82886;PMS5003;72660;51.258;-2.200;2024-01-16T13:37:18;0;0;
82886;PMS5003;72660;51.258;-2.200;2024-01-16T13:39:41;0;0;
82886;PMS5003;72660;51.258;-2.200;2024-01-16T13:42:07;1;1;
82886;PMS5003;72660;51.258;-2.200;2024-01-16T13:44:32;1;1;
82886;PMS5003;72660;51.258;-2.200;2024-01-16T13:46:57;3;2;
82886;PMS5003;72660;51.258;-2.200;2024-01-16T13:49:23;2;2;
82886;PMS5003;72660;51.258;-2.200;2024-01-16T13:51:48;4;4;
82886;PMS5003;72660;51.258;-2.200;2024-01-16T13:54:14;3;2;
82886;PMS5003;72660;51.258;-2.200;2024-01-16T13:56:39;1;1;
82886;PMS5003;72660;51.258;-2.200;2024-01-16T13:59:05;2;2;
82886;PMS5003;72660;51.258;-2.200;2024-01-16T14:01:30;3;2;
82886;PMS5003;72660;51.258;-2.200;2024-01-16T14:03:56;2;1;
82886;PMS5003;72660;51.258;-2.200;2024-01-16T14:06:21;3;3;
82886;PMS5003;72660;51.258;-2.200;2024-01-16T14:08:46;4;3;
82886;PMS5003;72660;51.258;-2.200;2024-01-16T14:11:12;5;2;
82886;PMS5003;72660;51.258;-2.200;2024-01-16T14:13:37;6;4;
82886;PMS5003;72660;51.258;-2.200;2024-01-16T14:16:03;3;3;
82886;PMS5003;72660;51.258;-2.200;2024-01-16T14:18:28;5;3;
82886;PMS5003;72660;51.258;-2.200;2024-01-16T14:20:53;3;3;
82886;PMS5003;72660;51.258;-2.200;2024-01-16T14:23:19;3;3;
82886;PMS5003;72660;51.258;-2.200;2024-01-16T14:25:44;3;2;
82886;PMS5003;72660;51.258;-2.200;2024-01-16T14:28:09;3;3;
82886;PMS5003;72660;51.258;-2.200;2024-01-16T14:30:35;3;3;
82886;PMS5003;72660;51.258;-2.200;2024-01-16T14:33:00;3;3;
82886;PMS5003;72660;51.258;-2.200;2024-01-16T14:35:26;4;4;
82886;PMS5003;72660;51.258;-2.200;2024-01-16T14:37:51;2;2;
82886;PMS5003;72660;51.258;-2.200;2024-01-16T14:40:16;7;5;
82886;PMS5003;72660;51.258;-2.200;2024-01-16T14:42:42;5;3;
82886;PMS5003;72660;51.258;-2.200;2024-01-16T14:45:08;4;4;
82886;PMS5003;72660;51.258;-2.200;2024-01-16T14:47:33;8;3;
82886;PMS5003;72660;51.258;-2.200;2024-01-16T14:49:58;5;5;
82886;PMS5003;72660;51.258;-2.200;2024-01-16T14:52:23;7;7;
82886;PMS5003;72660;51.258;-2.200;2024-01-16T14:54:49;5;5;
82886;PMS5003;72660;51.258;-2.200;2024-01-16T14:57:14;5;5;
82886;PMS5003;72660;51.258;-2.200;2024-01-16T14:59:40;7;6;
82886;PMS5003;72660;51.258;-2.200;2024-01-16T15:02:05;5;4;
82886;PMS5003;72660;51.258;-2.200;2024-01-16T15:04:30;5;5;
82886;PMS5003;72660;51.258;-2.200;2024-01-16T15:06:56;4;4;
82886;PMS5003;72660;51.258;-2.200;2024-01-16T15:09:21;5;5;
82886;PMS5003;72660;51.258;-2.200;2024-01-16T15:11:47;4;4;
82886;PMS5003;72660;51.258;-2.200;2024-01-16T15:14:12;5;5;
82886;PMS5003;72660;51.258;-2.200;2024-01-16T15:16:38;5;5;
82886;PMS5003;72660;51.258;-2.200;2024-01-16T15:19:03;7;6;
82886;PMS5003;72660;51.258;-2.200;2024-01-16T15:21:29;5;5;
82886;PMS5003;72660;51.258;-2.200;2024-01-16T15:23:54;6;6;
82886;PMS5003;72660;51.258;-2.200;2024-01-16T15:26:20;9;8;
82886;PMS5003;72660;51.258;-2.200;2024-01-16T15:28:45;10;10;
82886;PMS5003;72660;51.258;-2.200;2024-01-16T15:31:10;11;10;
82886;PMS5003;72660;51.258;-2.200;2024-01-16T15:33:36;14;12;
82886;PMS5003;72660;51.258;-2.200;2024-01-16T15:36:02;13;12;
82886;PMS5003;72660;51.258;-2.200;2024-01-16T15:38:27;12;12;
82886;PMS5003;72660;51.258;-2.200;2024-01-16T15:40:52;16;14;
82886;PMS5003;72660;51.258;-2.200;2024-01-16T15:43:18;23;16;
82886;PMS5003;72660;51.258;-2.200;2024-01-16T15:45:43;16;16;
82886;PMS5003;72660;51.258;-2.200;2024-01-16T15:48:09;12;12;
82886;PMS5003;72660;51.258;-2.200;2024-01-16T15:50:35;10;8;
82886;PMS5003;72660;51.258;-2.200;2024-01-16T15:53:00;11;9;
82886;PMS5003;72660;51.258;-2.200;2024-01-16T15:55:25;10;10;
82886;PMS5003;72660;51.258;-2.200;2024-01-16T15:57:50;10;10;
82886;PMS5003;72660;51.258;-2.200;2024-01-16T16:00:16;6;6;
82886;PMS5003;72660;51.258;-2.200;2024-01-16T16:02:42;9;9;
82886;PMS5003;72660;51.258;-2.200;2024-01-16T16:05:07;8;7;
82886;PMS5003;72660;51.258;-2.200;2024-01-16T16:07:32;11;8;
82886;PMS5003;72660;51.258;-2.200;2024-01-16T16:09:57;8;6;
82886;PMS5003;72660;51.258;-2.200;2024-01-16T16:12:22;6;4;
82886;PMS5003;72660;51.258;-2.200;2024-01-16T16:14:48;6;5;
82886;PMS5003;72660;51.258;-2.200;2024-01-16T16:17:13;9;5;
82886;PMS5003;72660;51.258;-2.200;2024-01-16T16:19:40;7;7;
82886;PMS5003;72660;51.258;-2.200;2024-01-16T16:22:04;13;9;
82886;PMS5003;72660;51.258;-2.200;2024-01-16T16:24:30;11;11;